Terminal Aerodrome Forecast
Issued by NWS

Home | Current Version | Previous Version | Text Only | Print | Product List | Glossary On
Versions: 1 2 3 4 5 6 7 8 9 10 11 12 13 14 15 16 17
000
FTUS44 KLZK 201720
TAFHOT
TAF
KHOT 201720Z 2018/2118 21010KT P6SM BKN250
     FM210600 20005KT P6SM SKC
     FM211200 18003KT 4SM BR BKN010
      TEMPO 2112/2116 2SM -DZ OVC005=

USA.gov is the U.S. government's official web portal to all federal, state and local government web resources and services.